sensor_id;sensor_type;location;lat;lon;timestamp;P1;durP1;ratioP1;P2;durP2;ratioP2
12163;SDS011;6145;50.192;10.064;2023-05-09T11:22:39;5.55;;;3.97;;
12163;SDS011;6145;50.192;10.064;2023-05-09T11:25:07;4.30;;;3.80;;
12163;SDS011;6145;50.192;10.064;2023-05-09T11:27:38;3.95;;;3.47;;
12163;SDS011;6145;50.192;10.064;2023-05-09T11:30:08;4.03;;;3.70;;
12163;SDS011;6145;50.192;10.064;2023-05-09T11:32:40;4.15;;;3.38;;
12163;SDS011;6145;50.192;10.064;2023-05-09T11:35:10;3.90;;;3.22;;
12163;SDS011;6145;50.192;10.064;2023-05-09T11:37:41;4.22;;;3.40;;
12163;SDS011;6145;50.192;10.064;2023-05-09T11:40:11;3.47;;;3.17;;
12163;SDS011;6145;50.192;10.064;2023-05-09T11:42:42;3.63;;;3.30;;
12163;SDS011;6145;50.192;10.064;2023-05-09T11:45:11;3.05;;;2.85;;
12163;SDS011;6145;50.192;10.064;2023-05-09T11:47:39;3.38;;;2.85;;
12163;SDS011;6145;50.192;10.064;2023-05-09T11:50:09;3.38;;;3.05;;
12163;SDS011;6145;50.192;10.064;2023-05-09T11:52:38;3.60;;;3.30;;
12163;SDS011;6145;50.192;10.064;2023-05-09T11:55:08;3.67;;;3.22;;
12163;SDS011;6145;50.192;10.064;2023-05-09T11:57:38;7.05;;;3.45;;
12163;SDS011;6145;50.192;10.064;2023-05-09T12:00:06;3.20;;;3.00;;
12163;SDS011;6145;50.192;10.064;2023-05-09T12:02:34;4.40;;;3.03;;
12163;SDS011;6145;50.192;10.064;2023-05-09T12:05:06;3.38;;;3.17;;
12163;SDS011;6145;50.192;10.064;2023-05-09T12:07:36;3.38;;;3.10;;
12163;SDS011;6145;50.192;10.064;2023-05-09T12:10:06;5.55;;;3.30;;
12163;SDS011;6145;50.192;10.064;2023-05-09T12:12:35;4.85;;;3.38;;
12163;SDS011;6145;50.192;10.064;2023-05-09T12:15:02;3.13;;;2.92;;
12163;SDS011;6145;50.192;10.064;2023-05-09T12:17:32;3.30;;;3.00;;
12163;SDS011;6145;50.192;10.064;2023-05-09T12:19:59;3.40;;;3.17;;
12163;SDS011;6145;50.192;10.064;2023-05-09T12:22:28;3.13;;;2.83;;
12163;SDS011;6145;50.192;10.064;2023-05-09T12:24:55;3.17;;;2.90;;
12163;SDS011;6145;50.192;10.064;2023-05-09T12:27:24;3.13;;;2.92;;
12163;SDS011;6145;50.192;10.064;2023-05-09T12:29:52;5.00;;;2.92;;
12163;SDS011;6145;50.192;10.064;2023-05-09T12:32:20;3.03;;;2.70;;
12163;SDS011;6145;50.192;10.064;2023-05-09T12:34:47;3.63;;;3.33;;
12163;SDS011;6145;50.192;10.064;2023-05-09T12:37:16;4.65;;;3.10;;
12163;SDS011;6145;50.192;10.064;2023-05-09T12:39:44;6.80;;;3.97;;
12163;SDS011;6145;50.192;10.064;2023-05-09T12:42:27;3.38;;;2.80;;
12163;SDS011;6145;50.192;10.064;2023-05-09T12:44:54;4.65;;;2.75;;
12163;SDS011;6145;50.192;10.064;2023-05-09T12:47:22;4.25;;;3.35;;
12163;SDS011;6145;50.192;10.064;2023-05-09T12:49:52;3.53;;;2.70;;
12163;SDS011;6145;50.192;10.064;2023-05-09T12:52:22;3.65;;;2.95;;
12163;SDS011;6145;50.192;10.064;2023-05-09T12:54:51;3.75;;;2.80;;
12163;SDS011;6145;50.192;10.064;2023-05-09T12:57:22;3.10;;;2.90;;
12163;SDS011;6145;50.192;10.064;2023-05-09T12:59:56;5.00;;;3.25;;
12163;SDS011;6145;50.192;10.064;2023-05-09T13:02:24;3.30;;;3.00;;
12163;SDS011;6145;50.192;10.064;2023-05-09T13:05:04;10.10;;;3.03;;
12163;SDS011;6145;50.192;10.064;2023-05-09T13:07:37;4.07;;;2.65;;
12163;SDS011;6145;50.192;10.064;2023-05-09T13:10:08;3.28;;;2.97;;
12163;SDS011;6145;50.192;10.064;2023-05-09T13:12:36;3.22;;;2.92;;
12163;SDS011;6145;50.192;10.064;2023-05-09T13:15:06;4.00;;;2.80;;
12163;SDS011;6145;50.192;10.064;2023-05-09T13:17:34;2.95;;;2.75;;
12163;SDS011;6145;50.192;10.064;2023-05-09T13:20:01;4.80;;;2.90;;
12163;SDS011;6145;50.192;10.064;2023-05-09T13:22:28;3.20;;;2.70;;
12163;SDS011;6145;50.192;10.064;2023-05-09T13:24:55;3.33;;;2.55;;
12163;SDS011;6145;50.192;10.064;2023-05-09T13:27:22;2.92;;;2.65;;
12163;SDS011;6145;50.192;10.064;2023-05-09T13:29:49;3.13;;;2.92;;
12163;SDS011;6145;50.192;10.064;2023-05-09T13:32:17;2.97;;;2.55;;
12163;SDS011;6145;50.192;10.064;2023-05-09T13:34:44;4.60;;;3.60;;
12163;SDS011;6145;50.192;10.064;2023-05-09T13:37:11;4.25;;;3.10;;
12163;SDS011;6145;50.192;10.064;2023-05-09T13:39:38;3.58;;;2.70;;
12163;SDS011;6145;50.192;10.064;2023-05-09T13:42:04;4.43;;;2.97;;
12163;SDS011;6145;50.192;10.064;2023-05-09T13:44:31;3.15;;;2.72;;
12163;SDS011;6145;50.192;10.064;2023-05-09T13:46:58;4.78;;;3.13;;
12163;SDS011;6145;50.192;10.064;2023-05-09T13:49:26;4.35;;;2.88;;
12163;SDS011;6145;50.192;10.064;2023-05-09T13:51:54;3.38;;;3.08;;
12163;SDS011;6145;50.192;10.064;2023-05-09T13:54:21;3.35;;;3.08;;
12163;SDS011;6145;50.192;10.064;2023-05-09T13:56:48;3.45;;;3.15;;
12163;SDS011;6145;50.192;10.064;2023-05-09T13:59:15;2.95;;;2.70;;
12163;SDS011;6145;50.192;10.064;2023-05-09T14:01:42;3.30;;;3.00;;
12163;SDS011;6145;50.192;10.064;2023-05-09T14:04:09;4.93;;;2.92;;
12163;SDS011;6145;50.192;10.064;2023-05-09T14:06:38;3.13;;;2.92;;
12163;SDS011;6145;50.192;10.064;2023-05-09T14:09:11;2.67;;;2.42;;
12163;SDS011;6145;50.192;10.064;2023-05-09T14:11:39;2.70;;;2.50;;
12163;SDS011;6145;50.192;10.064;2023-05-09T14:14:06;3.72;;;2.88;;
12163;SDS011;6145;50.192;10.064;2023-05-09T14:16:33;2.97;;;2.72;;
12163;SDS011;6145;50.192;10.064;2023-05-09T14:19:00;3.40;;;3.10;;
12163;SDS011;6145;50.192;10.064;2023-05-09T14:21:27;6.65;;;2.88;;
12163;SDS011;6145;50.192;10.064;2023-05-09T14:23:55;3.50;;;2.88;;
12163;SDS011;6145;50.192;10.064;2023-05-09T14:26:22;3.45;;;2.88;;
12163;SDS011;6145;50.192;10.064;2023-05-09T14:28:50;3.03;;;2.72;;
12163;SDS011;6145;50.192;10.064;2023-05-09T14:31:17;3.30;;;2.97;;
12163;SDS011;6145;50.192;10.064;2023-05-09T14:33:44;4.38;;;2.75;;
12163;SDS011;6145;50.192;10.064;2023-05-09T14:36:11;3.08;;;2.85;;
12163;SDS011;6145;50.192;10.064;2023-05-09T14:38:40;2.95;;;2.72;;
12163;SDS011;6145;50.192;10.064;2023-05-09T14:41:09;2.95;;;2.75;;
12163;SDS011;6145;50.192;10.064;2023-05-09T14:43:36;3.25;;;2.90;;
12163;SDS011;6145;50.192;10.064;2023-05-09T14:46:03;3.22;;;2.95;;
12163;SDS011;6145;50.192;10.064;2023-05-09T14:48:30;2.85;;;2.55;;
12163;SDS011;6145;50.192;10.064;2023-05-09T14:50:57;3.13;;;2.90;;
12163;SDS011;6145;50.192;10.064;2023-05-09T14:53:24;2.40;;;2.28;;
12163;SDS011;6145;50.192;10.064;2023-05-09T14:55:52;3.58;;;2.92;;
12163;SDS011;6145;50.192;10.064;2023-05-09T14:58:21;3.38;;;2.80;;
12163;SDS011;6145;50.192;10.064;2023-05-09T15:00:48;4.68;;;2.70;;
12163;SDS011;6145;50.192;10.064;2023-05-09T15:03:16;3.45;;;2.55;;
12163;SDS011;6145;50.192;10.064;2023-05-09T15:05:43;2.70;;;2.50;;
12163;SDS011;6145;50.192;10.064;2023-05-09T15:08:10;2.90;;;2.70;;
12163;SDS011;6145;50.192;10.064;2023-05-09T15:10:38;3.17;;;2.92;;
12163;SDS011;6145;50.192;10.064;2023-05-09T15:13:06;4.18;;;2.38;;
12163;SDS011;6145;50.192;10.064;2023-05-09T15:15:35;4.60;;;2.80;;
12163;SDS011;6145;50.192;10.064;2023-05-09T15:18:03;6.50;;;2.83;;
12163;SDS011;6145;50.192;10.064;2023-05-09T15:20:33;4.05;;;2.63;;
12163;SDS011;6145;50.192;10.064;2023-05-09T15:23:01;3.97;;;2.70;;
12163;SDS011;6145;50.192;10.064;2023-05-09T15:25:30;2.67;;;2.20;;
12163;SDS011;6145;50.192;10.064;2023-05-09T15:27:57;3.03;;;2.60;;
12163;SDS011;6145;50.192;10.064;2023-05-09T15:30:24;2.97;;;2.47;;
12163;SDS011;6145;50.192;10.064;2023-05-09T15:32:52;4.50;;;2.60;;
12163;SDS011;6145;50.192;10.064;2023-05-09T15:35:20;4.18;;;2.95;;
12163;SDS011;6145;50.192;10.064;2023-05-09T15:37:46;4.50;;;2.83;;
12163;SDS011;6145;50.192;10.064;2023-05-09T15:40:13;3.17;;;2.88;;
12163;SDS011;6145;50.192;10.064;2023-05-09T15:42:40;7.88;;;2.80;;
12163;SDS011;6145;50.192;10.064;2023-05-09T15:45:07;3.80;;;2.70;;
12163;SDS011;6145;50.192;10.064;2023-05-09T15:47:34;2.90;;;2.60;;
12163;SDS011;6145;50.192;10.064;2023-05-09T15:50:04;2.78;;;2.58;;
12163;SDS011;6145;50.192;10.064;2023-05-09T15:52:32;3.17;;;2.80;;
12163;SDS011;6145;50.192;10.064;2023-05-09T15:54:59;3.33;;;2.35;;
12163;SDS011;6145;50.192;10.064;2023-05-09T15:57:26;3.00;;;2.80;;
12163;SDS011;6145;50.192;10.064;2023-05-09T15:59:53;5.20;;;3.00;;
12163;SDS011;6145;50.192;10.064;2023-05-09T16:02:20;3.03;;;2.72;;
12163;SDS011;6145;50.192;10.064;2023-05-09T16:04:47;2.88;;;2.67;;
12163;SDS011;6145;50.192;10.064;2023-05-09T16:07:15;3.03;;;2.70;;
12163;SDS011;6145;50.192;10.064;2023-05-09T16:09:44;2.92;;;2.72;;
12163;SDS011;6145;50.192;10.064;2023-05-09T16:12:11;2.80;;;2.60;;
12163;SDS011;6145;50.192;10.064;2023-05-09T16:14:38;5.80;;;3.42;;
12163;SDS011;6145;50.192;10.064;2023-05-09T16:17:05;3.40;;;3.10;;
12163;SDS011;6145;50.192;10.064;2023-05-09T16:19:32;3.00;;;2.80;;
12163;SDS011;6145;50.192;10.064;2023-05-09T16:21:59;3.67;;;2.78;;
12163;SDS011;6145;50.192;10.064;2023-05-09T16:24:27;3.70;;;2.75;;
12163;SDS011;6145;50.192;10.064;2023-05-09T16:26:55;4.50;;;2.65;;
12163;SDS011;6145;50.192;10.064;2023-05-09T16:29:22;3.22;;;2.92;;
12163;SDS011;6145;50.192;10.064;2023-05-09T16:31:49;3.55;;;2.83;;
12163;SDS011;6145;50.192;10.064;2023-05-09T16:34:16;2.95;;;2.55;;
12163;SDS011;6145;50.192;10.064;2023-05-09T16:36:43;2.85;;;2.65;;
12163;SDS011;6145;50.192;10.064;2023-05-09T16:39:10;3.08;;;2.85;;
12163;SDS011;6145;50.192;10.064;2023-05-09T16:41:38;3.50;;;2.88;;
12163;SDS011;6145;50.192;10.064;2023-05-09T16:44:05;4.40;;;2.70;;
12163;SDS011;6145;50.192;10.064;2023-05-09T16:46:32;3.33;;;2.55;;
12163;SDS011;6145;50.192;10.064;2023-05-09T16:48:58;3.20;;;2.50;;
12163;SDS011;6145;50.192;10.064;2023-05-09T16:51:26;2.92;;;2.72;;
12163;SDS011;6145;50.192;10.064;2023-05-09T16:53:53;3.83;;;2.50;;
12163;SDS011;6145;50.192;10.064;2023-05-09T16:56:19;2.50;;;2.30;;
12163;SDS011;6145;50.192;10.064;2023-05-09T16:58:48;3.35;;;2.55;;
12163;SDS011;6145;50.192;10.064;2023-05-09T17:01:15;5.05;;;2.47;;
12163;SDS011;6145;50.192;10.064;2023-05-09T17:03:42;3.15;;;2.50;;
12163;SDS011;6145;50.192;10.064;2023-05-09T17:06:09;2.28;;;2.08;;
12163;SDS011;6145;50.192;10.064;2023-05-09T17:08:36;2.25;;;2.05;;
12163;SDS011;6145;50.192;10.064;2023-05-09T17:11:03;2.60;;;2.40;;
12163;SDS011;6145;50.192;10.064;2023-05-09T17:13:30;3.33;;;2.10;;
12163;SDS011;6145;50.192;10.064;2023-05-09T17:15:59;2.97;;;2.25;;
12163;SDS011;6145;50.192;10.064;2023-05-09T17:18:26;3.17;;;2.20;;
12163;SDS011;6145;50.192;10.064;2023-05-09T17:20:53;3.10;;;2.22;;
12163;SDS011;6145;50.192;10.064;2023-05-09T17:23:20;2.40;;;2.20;;
12163;SDS011;6145;50.192;10.064;2023-05-09T17:25:46;3.28;;;1.83;;
12163;SDS011;6145;50.192;10.064;2023-05-09T17:28:14;3.95;;;2.00;;
12163;SDS011;6145;50.192;10.064;2023-05-09T17:30:41;2.63;;;2.15;;
12163;SDS011;6145;50.192;10.064;2023-05-09T17:33:10;1.85;;;1.75;;
12163;SDS011;6145;50.192;10.064;2023-05-09T17:35:37;3.10;;;1.98;;
12163;SDS011;6145;50.192;10.064;2023-05-09T17:38:04;6.38;;;2.30;;
12163;SDS011;6145;50.192;10.064;2023-05-09T17:40:31;2.17;;;1.80;;
12163;SDS011;6145;50.192;10.064;2023-05-09T17:42:57;2.88;;;2.45;;
12163;SDS011;6145;50.192;10.064;2023-05-09T17:45:25;2.15;;;1.95;;
12163;SDS011;6145;50.192;10.064;2023-05-09T17:47:52;2.25;;;2.05;;
12163;SDS011;6145;50.192;10.064;2023-05-09T17:50:20;2.35;;;1.95;;
12163;SDS011;6145;50.192;10.064;2023-05-09T17:52:48;2.20;;;2.00;;
12163;SDS011;6145;50.192;10.064;2023-05-09T17:55:16;2.33;;;2.13;;
12163;SDS011;6145;50.192;10.064;2023-05-09T17:57:45;1.83;;;1.73;;
12163;SDS011;6145;50.192;10.064;2023-05-09T18:00:13;3.25;;;2.15;;
12163;SDS011;6145;50.192;10.064;2023-05-09T18:02:40;3.60;;;2.80;;
12163;SDS011;6145;50.192;10.064;2023-05-09T18:05:07;2.47;;;2.28;;
12163;SDS011;6145;50.192;10.064;2023-05-09T18:07:37;3.75;;;2.63;;
12163;SDS011;6145;50.192;10.064;2023-05-09T18:10:08;2.95;;;2.20;;
12163;SDS011;6145;50.192;10.064;2023-05-09T18:12:35;4.30;;;2.00;;
12163;SDS011;6145;50.192;10.064;2023-05-09T18:15:02;3.95;;;2.33;;
12163;SDS011;6145;50.192;10.064;2023-05-09T18:17:29;2.45;;;2.22;;
12163;SDS011;6145;50.192;10.064;2023-05-09T18:19:56;3.40;;;2.03;;
12163;SDS011;6145;50.192;10.064;2023-05-09T18:22:23;5.10;;;2.20;;
12163;SDS011;6145;50.192;10.064;2023-05-09T18:24:52;2.30;;;2.10;;
12163;SDS011;6145;50.192;10.064;2023-05-09T18:27:19;3.30;;;2.25;;
12163;SDS011;6145;50.192;10.064;2023-05-09T18:29:46;3.45;;;1.90;;
12163;SDS011;6145;50.192;10.064;2023-05-09T18:32:14;2.97;;;1.98;;
12163;SDS011;6145;50.192;10.064;2023-05-09T18:34:45;1.90;;;1.80;;
12163;SDS011;6145;50.192;10.064;2023-05-09T18:37:13;2.65;;;2.40;;
12163;SDS011;6145;50.192;10.064;2023-05-09T18:39:43;2.92;;;2.20;;
12163;SDS011;6145;50.192;10.064;2023-05-09T18:42:11;2.55;;;2.10;;
12163;SDS011;6145;50.192;10.064;2023-05-09T18:44:38;3.47;;;2.42;;
12163;SDS011;6145;50.192;10.064;2023-05-09T18:47:05;2.30;;;2.15;;
12163;SDS011;6145;50.192;10.064;2023-05-09T18:49:32;4.28;;;2.47;;
12163;SDS011;6145;50.192;10.064;2023-05-09T18:51:59;2.97;;;2.25;;
12163;SDS011;6145;50.192;10.064;2023-05-09T18:54:26;3.33;;;2.45;;
12163;SDS011;6145;50.192;10.064;2023-05-09T18:56:52;2.60;;;2.40;;
12163;SDS011;6145;50.192;10.064;2023-05-09T18:59:21;3.63;;;2.53;;
12163;SDS011;6145;50.192;10.064;2023-05-09T19:01:50;2.65;;;2.40;;
12163;SDS011;6145;50.192;10.064;2023-05-09T19:04:17;4.80;;;2.28;;
12163;SDS011;6145;50.192;10.064;2023-05-09T19:06:45;5.30;;;2.40;;
12163;SDS011;6145;50.192;10.064;2023-05-09T19:09:12;3.08;;;2.20;;
12163;SDS011;6145;50.192;10.064;2023-05-09T19:11:39;2.35;;;2.00;;
12163;SDS011;6145;50.192;10.064;2023-05-09T19:14:06;3.43;;;2.30;;
12163;SDS011;6145;50.192;10.064;2023-05-09T19:16:34;2.40;;;2.20;;
12163;SDS011;6145;50.192;10.064;2023-05-09T19:19:01;2.73;;;2.20;;
12163;SDS011;6145;50.192;10.064;2023-05-09T19:21:28;2.77;;;2.10;;
12163;SDS011;6145;50.192;10.064;2023-05-09T19:24:04;2.57;;;2.23;;
12163;SDS011;6145;50.192;10.064;2023-05-09T19:26:31;3.53;;;2.10;;
12163;SDS011;6145;50.192;10.064;2023-05-09T19:28:59;3.93;;;2.40;;
12163;SDS011;6145;50.192;10.064;2023-05-09T19:31:28;2.30;;;2.10;;
12163;SDS011;6145;50.192;10.064;2023-05-09T19:33:59;2.97;;;2.00;;
12163;SDS011;6145;50.192;10.064;2023-05-09T19:36:28;2.40;;;2.20;;
12163;SDS011;6145;50.192;10.064;2023-05-09T19:38:55;3.63;;;2.40;;
12163;SDS011;6145;50.192;10.064;2023-05-09T19:41:21;4.23;;;2.40;;
12163;SDS011;6145;50.192;10.064;2023-05-09T19:43:48;5.27;;;2.30;;
12163;SDS011;6145;50.192;10.064;2023-05-09T19:46:16;3.00;;;2.40;;
12163;SDS011;6145;50.192;10.064;2023-05-09T19:48:43;4.23;;;2.60;;
12163;SDS011;6145;50.192;10.064;2023-05-09T19:51:11;2.97;;;2.27;;
12163;SDS011;6145;50.192;10.064;2023-05-09T19:53:39;2.33;;;2.13;;
12163;SDS011;6145;50.192;10.064;2023-05-09T19:56:06;3.13;;;2.47;;
12163;SDS011;6145;50.192;10.064;2023-05-09T19:58:34;3.17;;;2.47;;
12163;SDS011;6145;50.192;10.064;2023-05-09T20:01:03;2.83;;;2.57;;
12163;SDS011;6145;50.192;10.064;2023-05-09T20:03:34;4.53;;;2.37;;
12163;SDS011;6145;50.192;10.064;2023-05-09T20:06:02;2.40;;;2.20;;
12163;SDS011;6145;50.192;10.064;2023-05-09T20:08:31;2.70;;;2.50;;
12163;SDS011;6145;50.192;10.064;2023-05-09T20:11:00;3.33;;;2.10;;
12163;SDS011;6145;50.192;10.064;2023-05-09T20:13:29;2.30;;;2.10;;
12163;SDS011;6145;50.192;10.064;2023-05-09T20:15:57;3.77;;;2.60;;
12163;SDS011;6145;50.192;10.064;2023-05-09T20:18:26;2.73;;;2.50;;
12163;SDS011;6145;50.192;10.064;2023-05-09T20:20:57;2.60;;;2.40;;
12163;SDS011;6145;50.192;10.064;2023-05-09T20:23:35;3.57;;;2.87;;
12163;SDS011;6145;50.192;10.064;2023-05-09T20:26:03;2.87;;;2.67;;
12163;SDS011;6145;50.192;10.064;2023-05-09T20:28:30;3.60;;;2.70;;
12163;SDS011;6145;50.192;10.064;2023-05-09T20:30:57;5.13;;;2.80;;
12163;SDS011;6145;50.192;10.064;2023-05-09T20:33:24;3.87;;;2.83;;
12163;SDS011;6145;50.192;10.064;2023-05-09T20:35:51;4.60;;;3.03;;
12163;SDS011;6145;50.192;10.064;2023-05-09T20:38:18;6.13;;;3.07;;
12163;SDS011;6145;50.192;10.064;2023-05-09T20:43:31;3.93;;;2.57;;
12163;SDS011;6145;50.192;10.064;2023-05-09T20:45:58;3.80;;;2.53;;
12163;SDS011;6145;50.192;10.064;2023-05-09T20:48:25;3.60;;;2.60;;
12163;SDS011;6145;50.192;10.064;2023-05-09T20:50:52;4.33;;;2.73;;
12163;SDS011;6145;50.192;10.064;2023-05-09T20:53:19;3.63;;;3.00;;
12163;SDS011;6145;50.192;10.064;2023-05-09T20:55:51;6.23;;;3.17;;
12163;SDS011;6145;50.192;10.064;2023-05-09T20:58:20;4.50;;;2.80;;
12163;SDS011;6145;50.192;10.064;2023-05-09T21:00:47;4.33;;;2.77;;
12163;SDS011;6145;50.192;10.064;2023-05-09T21:03:14;3.40;;;2.60;;
12163;SDS011;6145;50.192;10.064;2023-05-09T21:05:41;3.77;;;2.53;;
12163;SDS011;6145;50.192;10.064;2023-05-09T21:08:08;3.07;;;2.77;;
12163;SDS011;6145;50.192;10.064;2023-05-09T21:10:35;4.27;;;2.83;;
12163;SDS011;6145;50.192;10.064;2023-05-09T21:13:02;2.90;;;2.70;;
12163;SDS011;6145;50.192;10.064;2023-05-09T21:15:31;3.50;;;3.20;;
12163;SDS011;6145;50.192;10.064;2023-05-09T21:17:58;4.30;;;3.70;;
12163;SDS011;6145;50.192;10.064;2023-05-09T21:20:25;3.30;;;3.00;;
12163;SDS011;6145;50.192;10.064;2023-05-09T21:22:52;4.47;;;2.90;;
12163;SDS011;6145;50.192;10.064;2023-05-09T21:25:19;3.77;;;3.30;;
12163;SDS011;6145;50.192;10.064;2023-05-09T21:27:46;3.37;;;3.07;;
12163;SDS011;6145;50.192;10.064;2023-05-09T21:30:13;3.30;;;3.00;;
12163;SDS011;6145;50.192;10.064;2023-05-09T21:32:41;3.43;;;3.13;;
12163;SDS011;6145;50.192;10.064;2023-05-09T21:35:08;3.40;;;3.20;;
12163;SDS011;6145;50.192;10.064;2023-05-09T21:37:37;3.80;;;3.50;;
12163;SDS011;6145;50.192;10.064;2023-05-09T21:40:04;3.37;;;3.10;;
12163;SDS011;6145;50.192;10.064;2023-05-09T21:42:32;3.67;;;3.37;;
12163;SDS011;6145;50.192;10.064;2023-05-09T21:44:59;3.20;;;3.00;;
12163;SDS011;6145;50.192;10.064;2023-05-09T21:47:27;3.37;;;3.07;;
12163;SDS011;6145;50.192;10.064;2023-05-09T21:49:55;3.27;;;2.90;;
12163;SDS011;6145;50.192;10.064;2023-05-09T21:52:22;3.07;;;2.67;;
12163;SDS011;6145;50.192;10.064;2023-05-09T21:54:49;3.37;;;3.10;;
12163;SDS011;6145;50.192;10.064;2023-05-09T21:57:16;3.20;;;2.90;;
12163;SDS011;6145;50.192;10.064;2023-05-09T21:59:43;3.43;;;2.80;;
12163;SDS011;6145;50.192;10.064;2023-05-09T22:02:10;3.20;;;2.93;;
12163;SDS011;6145;50.192;10.064;2023-05-09T22:04:37;3.00;;;2.80;;
12163;SDS011;6145;50.192;10.064;2023-05-09T22:07:05;3.17;;;2.97;;
12163;SDS011;6145;50.192;10.064;2023-05-09T22:09:32;3.50;;;2.70;;
12163;SDS011;6145;50.192;10.064;2023-05-09T22:11:59;2.87;;;2.67;;
12163;SDS011;6145;50.192;10.064;2023-05-09T22:14:26;3.40;;;3.10;;
12163;SDS011;6145;50.192;10.064;2023-05-09T22:16:53;3.10;;;2.80;;
12163;SDS011;6145;50.192;10.064;2023-05-09T22:19:20;3.27;;;2.97;;
12163;SDS011;6145;50.192;10.064;2023-05-09T22:21:47;3.00;;;2.70;;
12163;SDS011;6145;50.192;10.064;2023-05-09T22:24:16;3.03;;;2.83;;
12163;SDS011;6145;50.192;10.064;2023-05-09T22:26:43;3.43;;;3.03;;
12163;SDS011;6145;50.192;10.064;2023-05-09T22:29:10;3.37;;;3.07;;
12163;SDS011;6145;50.192;10.064;2023-05-09T22:31:40;3.50;;;3.20;;
12163;SDS011;6145;50.192;10.064;2023-05-09T22:34:08;3.53;;;3.00;;
12163;SDS011;6145;50.192;10.064;2023-05-09T22:36:35;3.07;;;2.80;;
12163;SDS011;6145;50.192;10.064;2023-05-09T22:39:02;3.63;;;3.20;;
12163;SDS011;6145;50.192;10.064;2023-05-09T22:41:31;3.07;;;2.77;;
12163;SDS011;6145;50.192;10.064;2023-05-09T22:43:58;3.30;;;3.10;;
12163;SDS011;6145;50.192;10.064;2023-05-09T22:46:25;4.00;;;3.10;;
12163;SDS011;6145;50.192;10.064;2023-05-09T22:48:52;3.10;;;2.80;;
12163;SDS011;6145;50.192;10.064;2023-05-09T22:51:19;3.60;;;3.13;;
12163;SDS011;6145;50.192;10.064;2023-05-09T22:53:46;3.63;;;3.33;;
12163;SDS011;6145;50.192;10.064;2023-05-09T22:56:13;2.80;;;2.60;;
12163;SDS011;6145;50.192;10.064;2023-05-09T22:58:41;2.80;;;2.60;;
12163;SDS011;6145;50.192;10.064;2023-05-09T23:01:08;2.90;;;2.70;;
12163;SDS011;6145;50.192;10.064;2023-05-09T23:03:35;2.73;;;2.53;;
12163;SDS011;6145;50.192;10.064;2023-05-09T23:06:03;2.80;;;2.60;;
12163;SDS011;6145;50.192;10.064;2023-05-09T23:08:30;2.90;;;2.70;;
12163;SDS011;6145;50.192;10.064;2023-05-09T23:10:58;3.13;;;2.47;;
12163;SDS011;6145;50.192;10.064;2023-05-09T23:13:25;2.50;;;2.30;;
12163;SDS011;6145;50.192;10.064;2023-05-09T23:15:53;3.60;;;3.33;;
12163;SDS011;6145;50.192;10.064;2023-05-09T23:18:20;3.60;;;3.30;;
12163;SDS011;6145;50.192;10.064;2023-05-09T23:20:47;3.33;;;3.13;;
12163;SDS011;6145;50.192;10.064;2023-05-09T23:23:14;4.60;;;4.20;;
12163;SDS011;6145;50.192;10.064;2023-05-09T23:25:41;3.77;;;3.47;;
12163;SDS011;6145;50.192;10.064;2023-05-09T23:28:09;4.40;;;4.10;;
12163;SDS011;6145;50.192;10.064;2023-05-09T23:30:35;4.60;;;3.57;;
12163;SDS011;6145;50.192;10.064;2023-05-09T23:33:04;4.57;;;4.17;;
12163;SDS011;6145;50.192;10.064;2023-05-09T23:35:30;5.37;;;4.20;;
12163;SDS011;6145;50.192;10.064;2023-05-09T23:37:57;4.80;;;4.40;;
12163;SDS011;6145;50.192;10.064;2023-05-09T23:40:24;5.63;;;5.13;;
12163;SDS011;6145;50.192;10.064;2023-05-09T23:42:51;5.77;;;4.80;;
12163;SDS011;6145;50.192;10.064;2023-05-09T23:45:18;3.87;;;3.50;;
12163;SDS011;6145;50.192;10.064;2023-05-09T23:47:45;3.90;;;3.60;;
12163;SDS011;6145;50.192;10.064;2023-05-09T23:50:13;3.60;;;3.30;;
12163;SDS011;6145;50.192;10.064;2023-05-09T23:52:40;4.77;;;3.43;;
12163;SDS011;6145;50.192;10.064;2023-05-09T23:55:08;5.50;;;5.10;;
12163;SDS011;6145;50.192;10.064;2023-05-09T23:57:35;6.40;;;5.90;;
